Meteo Giornale » Osservazioni meteo Messico » Monterrey-Gen Maria
ore: 23:40 - Osservazioni Meteo Monterrey-Gen Maria
Lat. 25° 47' N Lon. 100° 6' W Alt. 387 metri s.l.m.
28 °C
Nuvoloso
Temp. 24 Ore
25 °C
38 °C
Est
20.3 Km/h
Dew point 22 °C
Umidità 69 %
Visibilità 11 Km
Il sole sorge alle ore 06:20
Il sole tramonta alle ore 18:59
| Data e Ora | Cielo e Fenomeni | T °C | DP °C | Um. % | Pres. hPa | Vis. km | Vento km/h | |
|---|---|---|---|---|---|---|---|---|
| Ieri h: 23:40 | Nuvoloso | 28 | 22 | 69 | 1015 | 11 | E 20.3 | |
| Ieri h: 22:40 | Molto Nuvoloso | 29 | 21 | 62 | 1015 | 11 | E 24 | |
| Ieri h: 21:40 | Poco Nuvoloso | 30 | 20 | 55 | 1015 | 13 | E 24 | |
| Ieri h: 20:40 | Poco Nuvoloso | 32 | 19 | 46 | 1013 | 11 | E 33.3 | |
| Ieri h: 19:40 | Poco Nuvoloso | 34 | 19 | 41 | 1012 | 11 | E/SE 29.6 | |
| Ieri h: 18:41 | Poco Nuvoloso | 36 | 15 | 28 | 1011 | 13 | E/NE 11.1 | |
| Ieri h: 17:40 | Molto Nuvoloso | 37 | 15 | 27 | 1011 | 13 | E 14.8 | |
| Ieri h: 16:42 | Molto Nuvoloso | 37 | 16 | 28 | 1011 | 13 | E 13 | |
| Ieri h: 15:41 | Molto Nuvoloso | 38 | 18 | 31 | 1012 | 13 | E/SE 20.3 | |
| Ieri h: 14:42 | Nuvoloso | 37 | 18 | 32 | 1012 | 11 | E 16.7 | |
| Ieri h: 13:40 | Nuvoloso | 37 | 18 | 32 | 1014 | 10 | E/SE 11.1 | |
| Ieri h: 12:40 | Sereno | 34 | 20 | 43 | 1015 | 8 | SE 14.8 | |
| Ieri h: 11:43 | Sereno | 32 | 20 | 49 | 1015 | 8 | E/NE 11.1 | |
| Ieri h: 10:40 | Sereno | 31 | 21 | 55 | 1016 | 8 | N 0 | |
| Ieri h: 09:40 | Sereno | 29 | 22 | 66 | 1016 | 8 | N 5.5 | |
| Ieri h: 08:40 | Sereno | 28 | 22 | 69 | 1016 | 6 | N 0 | |
| Ieri h: 07:40 | Sereno | 26 | 22 | 78 | 1016 | 6 | N 0 | |
| Ieri h: 06:40 | Molto Nuvoloso | 25 | 21 | 78 | 1015 | 8 | N 0 | |
| Ieri h: 05:40 | Molto Nuvoloso | 25 | 22 | 83 | 1015 | 11 | N 5.5 | |
| Ieri h: 04:40 | Molto Nuvoloso | 26 | 22 | 78 | 1015 | 11 | E 13 | |
| Ieri h: 03:40 | Coperto | 26 | 22 | 78 | 1015 | 11 | E 11.1 | |
| Ieri h: 02:40 | Molto Nuvoloso | 27 | 22 | 74 | 1015 | 11 | E 13 | |
| Ieri h: 01:40 | Molto Nuvoloso | 27 | 22 | 74 | 1015 | 11 | E 13 | |
| Ieri h: 00:40 | Poco Nuvoloso | 28 | 22 | 69 | 1015 | 11 | E 18.5 | |



